sensor_id;sensor_type;location;lat;lon;timestamp;P1;durP1;ratioP1;P2;durP2;ratioP2
26113;SDS011;13966;48.828;9.064;2022-11-12T00:01:39;15.43;;;9.63;;
26113;SDS011;13966;48.828;9.064;2022-11-12T00:04:05;14.32;;;10.52;;
26113;SDS011;13966;48.828;9.064;2022-11-12T00:06:33;18.52;;;10.85;;
26113;SDS011;13966;48.828;9.064;2022-11-12T00:08:59;15.93;;;10.23;;
26113;SDS011;13966;48.828;9.064;2022-11-12T00:11:25;19.08;;;10.98;;
26113;SDS011;13966;48.828;9.064;2022-11-12T00:13:51;17.58;;;9.85;;
26113;SDS011;13966;48.828;9.064;2022-11-12T00:16:17;16.00;;;10.13;;
26113;SDS011;13966;48.828;9.064;2022-11-12T00:18:43;19.23;;;10.45;;
26113;SDS011;13966;48.828;9.064;2022-11-12T00:21:09;16.33;;;10.65;;
26113;SDS011;13966;48.828;9.064;2022-11-12T00:23:35;15.82;;;11.18;;
26113;SDS011;13966;48.828;9.064;2022-11-12T00:26:02;18.00;;;10.77;;
26113;SDS011;13966;48.828;9.064;2022-11-12T00:28:28;16.50;;;10.32;;
26113;SDS011;13966;48.828;9.064;2022-11-12T00:30:54;14.95;;;10.38;;
26113;SDS011;13966;48.828;9.064;2022-11-12T00:33:20;18.42;;;10.20;;
26113;SDS011;13966;48.828;9.064;2022-11-12T00:35:46;14.82;;;10.00;;
26113;SDS011;13966;48.828;9.064;2022-11-12T00:38:12;17.30;;;10.40;;
26113;SDS011;13966;48.828;9.064;2022-11-12T00:40:39;20.42;;;10.02;;
26113;SDS011;13966;48.828;9.064;2022-11-12T00:43:06;14.35;;;10.25;;
26113;SDS011;13966;48.828;9.064;2022-11-12T00:45:32;17.63;;;9.90;;
26113;SDS011;13966;48.828;9.064;2022-11-12T00:47:58;15.98;;;10.32;;
26113;SDS011;13966;48.828;9.064;2022-11-12T00:50:24;15.52;;;10.38;;
26113;SDS011;13966;48.828;9.064;2022-11-12T00:52:50;13.02;;;9.95;;
26113;SDS011;13966;48.828;9.064;2022-11-12T00:55:16;12.80;;;8.95;;
26113;SDS011;13966;48.828;9.064;2022-11-12T00:57:42;16.65;;;8.95;;
26113;SDS011;13966;48.828;9.064;2022-11-12T01:00:13;14.73;;;9.40;;
26113;SDS011;13966;48.828;9.064;2022-11-12T01:02:39;13.45;;;9.73;;
26113;SDS011;13966;48.828;9.064;2022-11-12T01:05:05;13.77;;;9.43;;
26113;SDS011;13966;48.828;9.064;2022-11-12T01:07:31;13.65;;;9.88;;
26113;SDS011;13966;48.828;9.064;2022-11-12T01:09:58;15.75;;;9.40;;
26113;SDS011;13966;48.828;9.064;2022-11-12T01:12:24;15.68;;;9.35;;
26113;SDS011;13966;48.828;9.064;2022-11-12T01:14:50;12.48;;;9.02;;
26113;SDS011;13966;48.828;9.064;2022-11-12T01:17:16;14.20;;;8.98;;
26113;SDS011;13966;48.828;9.064;2022-11-12T01:19:42;11.75;;;8.57;;
26113;SDS011;13966;48.828;9.064;2022-11-12T01:22:09;14.70;;;9.00;;
26113;SDS011;13966;48.828;9.064;2022-11-12T01:24:36;14.95;;;9.05;;
26113;SDS011;13966;48.828;9.064;2022-11-12T01:27:02;12.15;;;8.82;;
26113;SDS011;13966;48.828;9.064;2022-11-12T01:29:28;14.35;;;8.65;;
26113;SDS011;13966;48.828;9.064;2022-11-12T01:31:54;12.88;;;9.20;;
26113;SDS011;13966;48.828;9.064;2022-11-12T01:34:20;14.45;;;8.95;;
26113;SDS011;13966;48.828;9.064;2022-11-12T01:36:46;15.13;;;9.45;;
26113;SDS011;13966;48.828;9.064;2022-11-12T01:39:12;15.40;;;9.18;;
26113;SDS011;13966;48.828;9.064;2022-11-12T01:41:39;15.95;;;10.13;;
26113;SDS011;13966;48.828;9.064;2022-11-12T01:44:19;18.23;;;10.70;;
26113;SDS011;13966;48.828;9.064;2022-11-12T01:49:13;15.98;;;10.48;;
26113;SDS011;13966;48.828;9.064;2022-11-12T01:51:43;16.30;;;10.30;;
26113;SDS011;13966;48.828;9.064;2022-11-12T01:54:12;17.65;;;11.45;;
26113;SDS011;13966;48.828;9.064;2022-11-12T01:56:40;19.70;;;12.30;;
26113;SDS011;13966;48.828;9.064;2022-11-12T01:59:07;19.52;;;10.98;;
26113;SDS011;13966;48.828;9.064;2022-11-12T02:01:36;16.53;;;10.03;;
26113;SDS011;13966;48.828;9.064;2022-11-12T02:04:03;14.85;;;10.13;;
26113;SDS011;13966;48.828;9.064;2022-11-12T02:06:29;18.60;;;9.75;;
26113;SDS011;13966;48.828;9.064;2022-11-12T02:08:55;14.48;;;10.02;;
26113;SDS011;13966;48.828;9.064;2022-11-12T02:11:21;14.07;;;9.40;;
26113;SDS011;13966;48.828;9.064;2022-11-12T02:13:47;17.58;;;11.05;;
26113;SDS011;13966;48.828;9.064;2022-11-12T02:18:53;17.88;;;8.90;;
26113;SDS011;13966;48.828;9.064;2022-11-12T02:21:22;12.30;;;9.13;;
26113;SDS011;13966;48.828;9.064;2022-11-12T02:24:05;13.18;;;9.15;;
26113;SDS011;13966;48.828;9.064;2022-11-12T02:26:35;12.52;;;8.95;;
26113;SDS011;13966;48.828;9.064;2022-11-12T02:29:02;12.80;;;8.65;;
26113;SDS011;13966;48.828;9.064;2022-11-12T02:31:28;12.32;;;8.23;;
26113;SDS011;13966;48.828;9.064;2022-11-12T02:33:54;11.60;;;8.25;;
26113;SDS011;13966;48.828;9.064;2022-11-12T02:36:20;11.73;;;7.55;;
26113;SDS011;13966;48.828;9.064;2022-11-12T02:38:46;11.30;;;7.40;;
26113;SDS011;13966;48.828;9.064;2022-11-12T02:41:12;12.10;;;7.97;;
26113;SDS011;13966;48.828;9.064;2022-11-12T02:43:39;12.05;;;8.50;;
26113;SDS011;13966;48.828;9.064;2022-11-12T02:46:05;11.85;;;8.00;;
26113;SDS011;13966;48.828;9.064;2022-11-12T02:48:31;11.95;;;8.40;;
26113;SDS011;13966;48.828;9.064;2022-11-12T02:50:57;12.18;;;8.70;;
26113;SDS011;13966;48.828;9.064;2022-11-12T02:53:23;12.00;;;7.95;;
26113;SDS011;13966;48.828;9.064;2022-11-12T02:55:49;10.82;;;8.05;;
26113;SDS011;13966;48.828;9.064;2022-11-12T02:58:15;9.38;;;7.63;;
26113;SDS011;13966;48.828;9.064;2022-11-12T03:00:41;10.38;;;8.00;;
26113;SDS011;13966;48.828;9.064;2022-11-12T03:03:07;9.35;;;7.50;;
26113;SDS011;13966;48.828;9.064;2022-11-12T03:05:33;9.40;;;7.53;;
26113;SDS011;13966;48.828;9.064;2022-11-12T03:08:01;9.45;;;7.25;;
26113;SDS011;13966;48.828;9.064;2022-11-12T03:10:27;11.98;;;8.20;;
26113;SDS011;13966;48.828;9.064;2022-11-12T03:12:57;10.27;;;7.50;;
26113;SDS011;13966;48.828;9.064;2022-11-12T03:15:24;10.88;;;7.80;;
26113;SDS011;13966;48.828;9.064;2022-11-12T03:17:50;15.35;;;7.82;;
26113;SDS011;13966;48.828;9.064;2022-11-12T03:20:16;10.35;;;7.68;;
26113;SDS011;13966;48.828;9.064;2022-11-12T03:22:42;13.15;;;7.95;;
26113;SDS011;13966;48.828;9.064;2022-11-12T03:25:19;12.73;;;7.50;;
26113;SDS011;13966;48.828;9.064;2022-11-12T03:27:44;12.43;;;7.25;;
26113;SDS011;13966;48.828;9.064;2022-11-12T03:30:11;13.25;;;7.43;;
26113;SDS011;13966;48.828;9.064;2022-11-12T03:32:37;11.68;;;7.60;;
26113;SDS011;13966;48.828;9.064;2022-11-12T03:35:03;9.95;;;7.13;;
26113;SDS011;13966;48.828;9.064;2022-11-12T03:37:29;12.35;;;8.07;;
26113;SDS011;13966;48.828;9.064;2022-11-12T03:39:55;10.25;;;7.68;;
26113;SDS011;13966;48.828;9.064;2022-11-12T03:42:21;12.30;;;8.35;;
26113;SDS011;13966;48.828;9.064;2022-11-12T03:44:46;12.32;;;8.02;;
26113;SDS011;13966;48.828;9.064;2022-11-12T03:47:12;10.52;;;7.78;;
26113;SDS011;13966;48.828;9.064;2022-11-12T03:49:38;10.23;;;7.25;;
26113;SDS011;13966;48.828;9.064;2022-11-12T03:52:04;10.07;;;7.43;;
26113;SDS011;13966;48.828;9.064;2022-11-12T03:54:30;9.63;;;7.38;;
26113;SDS011;13966;48.828;9.064;2022-11-12T03:56:56;10.25;;;6.97;;
26113;SDS011;13966;48.828;9.064;2022-11-12T03:59:22;9.90;;;7.10;;
26113;SDS011;13966;48.828;9.064;2022-11-12T04:01:48;10.13;;;7.15;;
26113;SDS011;13966;48.828;9.064;2022-11-12T04:04:14;11.35;;;7.55;;
26113;SDS011;13966;48.828;9.064;2022-11-12T04:06:40;8.90;;;6.88;;
26113;SDS011;13966;48.828;9.064;2022-11-12T04:09:24;9.45;;;6.93;;
26113;SDS011;13966;48.828;9.064;2022-11-12T04:11:50;8.48;;;6.65;;
26113;SDS011;13966;48.828;9.064;2022-11-12T04:14:16;10.65;;;7.68;;
26113;SDS011;13966;48.828;9.064;2022-11-12T04:16:42;8.27;;;6.82;;
26113;SDS011;13966;48.828;9.064;2022-11-12T04:19:27;9.52;;;6.88;;
26113;SDS011;13966;48.828;9.064;2022-11-12T04:22:12;10.38;;;7.20;;
26113;SDS011;13966;48.828;9.064;2022-11-12T04:24:38;12.57;;;7.07;;
26113;SDS011;13966;48.828;9.064;2022-11-12T04:27:31;10.27;;;7.80;;
26113;SDS011;13966;48.828;9.064;2022-11-12T04:29:57;13.55;;;7.90;;
26113;SDS011;13966;48.828;9.064;2022-11-12T04:35:11;11.73;;;8.07;;
26113;SDS011;13966;48.828;9.064;2022-11-12T04:37:37;11.25;;;7.95;;
26113;SDS011;13966;48.828;9.064;2022-11-12T04:40:13;13.98;;;8.07;;
26113;SDS011;13966;48.828;9.064;2022-11-12T04:42:59;10.40;;;7.38;;
26113;SDS011;13966;48.828;9.064;2022-11-12T04:45:44;11.60;;;7.50;;
26113;SDS011;13966;48.828;9.064;2022-11-12T04:48:11;11.50;;;7.78;;
26113;SDS011;13966;48.828;9.064;2022-11-12T04:50:37;10.10;;;7.47;;
26113;SDS011;13966;48.828;9.064;2022-11-12T04:53:03;10.77;;;7.13;;
26113;SDS011;13966;48.828;9.064;2022-11-12T04:55:30;9.85;;;6.65;;
26113;SDS011;13966;48.828;9.064;2022-11-12T04:57:56;9.82;;;6.60;;
26113;SDS011;13966;48.828;9.064;2022-11-12T05:00:23;11.05;;;6.70;;
26113;SDS011;13966;48.828;9.064;2022-11-12T05:02:49;6.78;;;5.68;;
26113;SDS011;13966;48.828;9.064;2022-11-12T05:05:15;10.13;;;5.95;;
26113;SDS011;13966;48.828;9.064;2022-11-12T05:07:41;8.18;;;6.70;;
26113;SDS011;13966;48.828;9.064;2022-11-12T05:10:07;8.48;;;6.80;;
26113;SDS011;13966;48.828;9.064;2022-11-12T05:12:34;9.57;;;6.95;;
26113;SDS011;13966;48.828;9.064;2022-11-12T05:15:00;9.10;;;6.57;;
26113;SDS011;13966;48.828;9.064;2022-11-12T05:17:26;11.15;;;7.10;;
26113;SDS011;13966;48.828;9.064;2022-11-12T05:19:52;12.18;;;7.88;;
26113;SDS011;13966;48.828;9.064;2022-11-12T05:22:18;10.80;;;7.90;;
26113;SDS011;13966;48.828;9.064;2022-11-12T05:24:44;12.20;;;8.35;;
26113;SDS011;13966;48.828;9.064;2022-11-12T05:27:14;11.38;;;8.48;;
26113;SDS011;13966;48.828;9.064;2022-11-12T05:29:41;12.63;;;8.38;;
26113;SDS011;13966;48.828;9.064;2022-11-12T05:32:07;12.95;;;8.15;;
26113;SDS011;13966;48.828;9.064;2022-11-12T05:34:33;12.20;;;9.07;;
26113;SDS011;13966;48.828;9.064;2022-11-12T05:37:00;10.88;;;8.90;;
26113;SDS011;13966;48.828;9.064;2022-11-12T05:39:27;12.50;;;9.07;;
26113;SDS011;13966;48.828;9.064;2022-11-12T05:41:53;11.65;;;8.38;;
26113;SDS011;13966;48.828;9.064;2022-11-12T05:44:19;11.52;;;8.32;;
26113;SDS011;13966;48.828;9.064;2022-11-12T05:46:45;9.18;;;7.50;;
26113;SDS011;13966;48.828;9.064;2022-11-12T05:49:11;11.52;;;7.90;;
26113;SDS011;13966;48.828;9.064;2022-11-12T05:51:37;16.25;;;7.30;;
26113;SDS011;13966;48.828;9.064;2022-11-12T05:54:03;8.43;;;6.50;;
26113;SDS011;13966;48.828;9.064;2022-11-12T05:56:29;7.53;;;6.53;;
26113;SDS011;13966;48.828;9.064;2022-11-12T05:58:55;9.70;;;7.15;;
26113;SDS011;13966;48.828;9.064;2022-11-12T06:01:22;8.13;;;6.32;;
26113;SDS011;13966;48.828;9.064;2022-11-12T06:03:48;11.00;;;6.43;;
26113;SDS011;13966;48.828;9.064;2022-11-12T06:06:14;15.27;;;6.53;;
26113;SDS011;13966;48.828;9.064;2022-11-12T06:08:40;12.18;;;6.65;;
26113;SDS011;13966;48.828;9.064;2022-11-12T06:11:06;7.95;;;6.45;;
26113;SDS011;13966;48.828;9.064;2022-11-12T06:13:32;8.38;;;6.60;;
26113;SDS011;13966;48.828;9.064;2022-11-12T06:15:58;8.40;;;6.80;;
26113;SDS011;13966;48.828;9.064;2022-11-12T06:18:24;8.98;;;6.60;;
26113;SDS011;13966;48.828;9.064;2022-11-12T06:20:50;12.77;;;7.07;;
26113;SDS011;13966;48.828;9.064;2022-11-12T06:23:35;7.68;;;6.00;;
26113;SDS011;13966;48.828;9.064;2022-11-12T06:26:01;10.63;;;7.47;;
26113;SDS011;13966;48.828;9.064;2022-11-12T06:28:28;11.00;;;6.47;;
26113;SDS011;13966;48.828;9.064;2022-11-12T06:30:54;9.57;;;6.95;;
26113;SDS011;13966;48.828;9.064;2022-11-12T06:33:20;8.75;;;6.78;;
26113;SDS011;13966;48.828;9.064;2022-11-12T06:35:46;10.00;;;6.65;;
26113;SDS011;13966;48.828;9.064;2022-11-12T06:38:12;9.18;;;6.10;;
26113;SDS011;13966;48.828;9.064;2022-11-12T06:40:38;8.55;;;7.10;;
26113;SDS011;13966;48.828;9.064;2022-11-12T06:43:04;8.52;;;6.72;;
26113;SDS011;13966;48.828;9.064;2022-11-12T06:45:30;10.35;;;6.78;;
26113;SDS011;13966;48.828;9.064;2022-11-12T06:47:56;8.63;;;6.57;;
26113;SDS011;13966;48.828;9.064;2022-11-12T06:50:23;11.50;;;7.10;;
26113;SDS011;13966;48.828;9.064;2022-11-12T06:52:49;14.50;;;7.63;;
26113;SDS011;13966;48.828;9.064;2022-11-12T06:55:14;12.75;;;7.82;;
26113;SDS011;13966;48.828;9.064;2022-11-12T06:57:40;10.52;;;6.97;;
26113;SDS011;13966;48.828;9.064;2022-11-12T07:00:07;19.13;;;10.25;;
26113;SDS011;13966;48.828;9.064;2022-11-12T07:02:35;13.23;;;10.13;;
26113;SDS011;13966;48.828;9.064;2022-11-12T07:05:01;11.25;;;9.48;;
26113;SDS011;13966;48.828;9.064;2022-11-12T07:07:28;11.00;;;7.80;;
26113;SDS011;13966;48.828;9.064;2022-11-12T07:09:54;8.73;;;6.82;;
26113;SDS011;13966;48.828;9.064;2022-11-12T07:12:20;14.77;;;7.80;;
26113;SDS011;13966;48.828;9.064;2022-11-12T07:14:46;14.45;;;10.60;;
26113;SDS011;13966;48.828;9.064;2022-11-12T07:17:12;13.98;;;10.00;;
26113;SDS011;13966;48.828;9.064;2022-11-12T07:19:40;13.05;;;7.95;;
26113;SDS011;13966;48.828;9.064;2022-11-12T07:22:06;10.82;;;8.50;;
26113;SDS011;13966;48.828;9.064;2022-11-12T07:24:32;13.27;;;8.00;;
26113;SDS011;13966;48.828;9.064;2022-11-12T07:26:58;10.98;;;7.68;;
26113;SDS011;13966;48.828;9.064;2022-11-12T07:29:24;11.75;;;7.55;;
26113;SDS011;13966;48.828;9.064;2022-11-12T07:31:50;19.63;;;8.85;;
26113;SDS011;13966;48.828;9.064;2022-11-12T07:34:16;13.65;;;9.27;;
26113;SDS011;13966;48.828;9.064;2022-11-12T07:36:42;17.98;;;9.35;;
26113;SDS011;13966;48.828;9.064;2022-11-12T07:39:08;13.68;;;9.05;;
26113;SDS011;13966;48.828;9.064;2022-11-12T07:41:34;18.73;;;11.20;;
26113;SDS011;13966;48.828;9.064;2022-11-12T07:44:00;13.10;;;9.32;;
26113;SDS011;13966;48.828;9.064;2022-11-12T07:46:26;12.10;;;8.02;;
26113;SDS011;13966;48.828;9.064;2022-11-12T07:48:52;9.30;;;6.43;;
26113;SDS011;13966;48.828;9.064;2022-11-12T07:51:23;8.93;;;6.97;;
26113;SDS011;13966;48.828;9.064;2022-11-12T07:53:50;9.50;;;7.00;;
26113;SDS011;13966;48.828;9.064;2022-11-12T07:56:19;8.93;;;6.55;;
26113;SDS011;13966;48.828;9.064;2022-11-12T07:58:45;10.57;;;6.70;;
26113;SDS011;13966;48.828;9.064;2022-11-12T08:01:28;10.27;;;7.13;;
26113;SDS011;13966;48.828;9.064;2022-11-12T08:03:56;9.13;;;6.72;;
26113;SDS011;13966;48.828;9.064;2022-11-12T08:06:22;10.38;;;6.57;;
26113;SDS011;13966;48.828;9.064;2022-11-12T08:08:52;8.35;;;6.65;;
26113;SDS011;13966;48.828;9.064;2022-11-12T08:11:18;8.20;;;6.45;;
26113;SDS011;13966;48.828;9.064;2022-11-12T08:13:44;11.10;;;7.20;;
26113;SDS011;13966;48.828;9.064;2022-11-12T08:16:10;11.85;;;7.78;;
26113;SDS011;13966;48.828;9.064;2022-11-12T08:18:36;9.82;;;7.38;;
26113;SDS011;13966;48.828;9.064;2022-11-12T08:21:03;7.82;;;6.85;;
26113;SDS011;13966;48.828;9.064;2022-11-12T08:23:29;10.30;;;6.78;;
26113;SDS011;13966;48.828;9.064;2022-11-12T08:25:59;11.93;;;7.05;;
26113;SDS011;13966;48.828;9.064;2022-11-12T08:28:27;9.68;;;6.57;;
26113;SDS011;13966;48.828;9.064;2022-11-12T08:30:53;10.00;;;6.75;;
26113;SDS011;13966;48.828;9.064;2022-11-12T08:33:19;8.50;;;7.00;;
26113;SDS011;13966;48.828;9.064;2022-11-12T08:35:45;11.98;;;7.40;;
26113;SDS011;13966;48.828;9.064;2022-11-12T08:38:11;8.93;;;7.22;;
26113;SDS011;13966;48.828;9.064;2022-11-12T08:40:38;7.28;;;6.20;;
26113;SDS011;13966;48.828;9.064;2022-11-12T08:43:05;9.35;;;6.65;;
26113;SDS011;13966;48.828;9.064;2022-11-12T08:45:32;9.13;;;6.57;;
26113;SDS011;13966;48.828;9.064;2022-11-12T08:47:59;9.45;;;5.30;;
26113;SDS011;13966;48.828;9.064;2022-11-12T08:50:25;8.63;;;5.60;;
26113;SDS011;13966;48.828;9.064;2022-11-12T08:52:51;7.40;;;5.80;;
26113;SDS011;13966;48.828;9.064;2022-11-12T08:55:17;7.30;;;5.95;;
26113;SDS011;13966;48.828;9.064;2022-11-12T08:57:43;10.55;;;5.05;;
26113;SDS011;13966;48.828;9.064;2022-11-12T09:00:10;8.75;;;5.40;;
26113;SDS011;13966;48.828;9.064;2022-11-12T09:02:36;7.78;;;5.75;;
26113;SDS011;13966;48.828;9.064;2022-11-12T09:05:02;5.50;;;4.80;;
26113;SDS011;13966;48.828;9.064;2022-11-12T09:07:28;9.50;;;5.93;;
26113;SDS011;13966;48.828;9.064;2022-11-12T09:09:54;6.80;;;5.57;;
26113;SDS011;13966;48.828;9.064;2022-11-12T09:12:20;8.23;;;5.05;;
26113;SDS011;13966;48.828;9.064;2022-11-12T09:14:46;6.78;;;5.22;;
26113;SDS011;13966;48.828;9.064;2022-11-12T09:17:13;9.07;;;5.57;;
26113;SDS011;13966;48.828;9.064;2022-11-12T09:19:39;7.32;;;5.72;;
26113;SDS011;13966;48.828;9.064;2022-11-12T09:22:05;7.72;;;5.68;;
26113;SDS011;13966;48.828;9.064;2022-11-12T09:24:31;7.22;;;5.50;;
26113;SDS011;13966;48.828;9.064;2022-11-12T09:26:57;8.25;;;5.15;;
26113;SDS011;13966;48.828;9.064;2022-11-12T09:29:23;6.45;;;4.78;;
26113;SDS011;13966;48.828;9.064;2022-11-12T09:31:49;9.05;;;4.85;;
26113;SDS011;13966;48.828;9.064;2022-11-12T09:34:15;5.85;;;4.75;;
26113;SDS011;13966;48.828;9.064;2022-11-12T09:36:41;6.00;;;4.65;;
26113;SDS011;13966;48.828;9.064;2022-11-12T09:39:07;5.93;;;4.63;;
26113;SDS011;13966;48.828;9.064;2022-11-12T09:41:33;10.80;;;5.53;;
26113;SDS011;13966;48.828;9.064;2022-11-12T09:44:02;6.97;;;5.10;;
26113;SDS011;13966;48.828;9.064;2022-11-12T09:46:39;5.80;;;4.90;;
26113;SDS011;13966;48.828;9.064;2022-11-12T09:49:11;6.85;;;4.53;;
26113;SDS011;13966;48.828;9.064;2022-11-12T09:54:10;5.53;;;4.45;;
26113;SDS011;13966;48.828;9.064;2022-11-12T09:56:38;7.40;;;5.50;;
26113;SDS011;13966;48.828;9.064;2022-11-12T09:59:08;7.47;;;4.85;;
26113;SDS011;13966;48.828;9.064;2022-11-12T10:04:23;7.30;;;4.07;;
26113;SDS011;13966;48.828;9.064;2022-11-12T10:07:38;11.27;;;4.20;;
26113;SDS011;13966;48.828;9.064;2022-11-12T10:20:51;4.60;;;4.00;;
26113;SDS011;13966;48.828;9.064;2022-11-12T10:23:20;3.97;;;3.33;;
26113;SDS011;13966;48.828;9.064;2022-11-12T10:25:48;7.10;;;3.30;;
26113;SDS011;13966;48.828;9.064;2022-11-12T10:30:44;5.28;;;3.30;;
26113;SDS011;13966;48.828;9.064;2022-11-12T10:33:12;7.70;;;3.88;;
26113;SDS011;13966;48.828;9.064;2022-11-12T10:35:39;5.82;;;3.45;;
26113;SDS011;13966;48.828;9.064;2022-11-12T10:38:06;4.78;;;2.97;;
26113;SDS011;13966;48.828;9.064;2022-11-12T10:43:03;4.07;;;2.97;;
26113;SDS011;13966;48.828;9.064;2022-11-12T10:45:30;5.18;;;3.60;;
26113;SDS011;13966;48.828;9.064;2022-11-12T10:47:56;4.32;;;3.20;;
26113;SDS011;13966;48.828;9.064;2022-11-12T10:50:33;3.92;;;3.50;;
26113;SDS011;13966;48.828;9.064;2022-11-12T10:53:02;5.78;;;3.42;;
26113;SDS011;13966;48.828;9.064;2022-11-12T10:55:29;10.15;;;3.35;;
26113;SDS011;13966;48.828;9.064;2022-11-12T10:58:02;4.45;;;3.50;;
26113;SDS011;13966;48.828;9.064;2022-11-12T11:00:28;5.43;;;3.42;;
26113;SDS011;13966;48.828;9.064;2022-11-12T11:02:54;5.57;;;3.20;;
26113;SDS011;13966;48.828;9.064;2022-11-12T11:08:08;5.80;;;3.78;;
26113;SDS011;13966;48.828;9.064;2022-11-12T11:10:35;3.75;;;3.33;;
26113;SDS011;13966;48.828;9.064;2022-11-12T11:13:08;4.35;;;3.20;;
26113;SDS011;13966;48.828;9.064;2022-11-12T11:15:35;6.28;;;3.17;;
26113;SDS011;13966;48.828;9.064;2022-11-12T11:18:01;3.83;;;2.35;;
26113;SDS011;13966;48.828;9.064;2022-11-12T11:20:29;2.80;;;2.60;;
26113;SDS011;13966;48.828;9.064;2022-11-12T11:23:01;4.63;;;3.17;;
26113;SDS011;13966;48.828;9.064;2022-11-12T11:25:28;5.38;;;3.30;;
26113;SDS011;13966;48.828;9.064;2022-11-12T11:27:59;4.05;;;3.20;;
26113;SDS011;13966;48.828;9.064;2022-11-12T11:30:29;3.88;;;3.08;;
26113;SDS011;13966;48.828;9.064;2022-11-12T11:40:30;2.75;;;2.22;;
26113;SDS011;13966;48.828;9.064;2022-11-12T11:48:31;3.15;;;1.98;;
26113;SDS011;13966;48.828;9.064;2022-11-12T11:51:02;3.33;;;2.25;;
26113;SDS011;13966;48.828;9.064;2022-11-12T11:53:38;5.57;;;2.90;;
26113;SDS011;13966;48.828;9.064;2022-11-12T11:56:10;5.45;;;2.90;;
26113;SDS011;13966;48.828;9.064;2022-11-12T12:01:17;8.07;;;3.38;;
26113;SDS011;13966;48.828;9.064;2022-11-12T12:03:49;3.25;;;2.95;;
26113;SDS011;13966;48.828;9.064;2022-11-12T12:06:22;3.50;;;3.20;;
26113;SDS011;13966;48.828;9.064;2022-11-12T12:13:57;6.55;;;3.40;;
26113;SDS011;13966;48.828;9.064;2022-11-12T12:16:39;5.53;;;3.30;;
26113;SDS011;13966;48.828;9.064;2022-11-12T12:19:11;4.35;;;3.00;;
26113;SDS011;13966;48.828;9.064;2022-11-12T12:21:43;3.60;;;3.30;;
26113;SDS011;13966;48.828;9.064;2022-11-12T12:24:15;6.13;;;3.08;;
26113;SDS011;13966;48.828;9.064;2022-11-12T12:26:44;3.65;;;3.22;;
26113;SDS011;13966;48.828;9.064;2022-11-12T12:29:16;5.68;;;3.45;;
26113;SDS011;13966;48.828;9.064;2022-11-12T12:31:46;3.55;;;3.25;;
26113;SDS011;13966;48.828;9.064;2022-11-12T12:34:21;4.07;;;2.90;;
26113;SDS011;13966;48.828;9.064;2022-11-12T12:36:49;3.90;;;2.92;;
26113;SDS011;13966;48.828;9.064;2022-11-12T12:39:17;3.50;;;2.80;;
26113;SDS011;13966;48.828;9.064;2022-11-12T12:44:15;4.65;;;2.63;;
26113;SDS011;13966;48.828;9.064;2022-11-12T12:46:49;2.85;;;2.55;;
26113;SDS011;13966;48.828;9.064;2022-11-12T12:49:18;5.35;;;3.58;;
26113;SDS011;13966;48.828;9.064;2022-11-12T12:51:46;4.55;;;3.20;;
26113;SDS011;13966;48.828;9.064;2022-11-12T12:56:57;4.25;;;3.17;;
26113;SDS011;13966;48.828;9.064;2022-11-12T12:59:23;5.18;;;2.63;;
26113;SDS011;13966;48.828;9.064;2022-11-12T13:01:53;6.93;;;3.00;;
26113;SDS011;13966;48.828;9.064;2022-11-12T13:19:28;3.67;;;3.10;;
26113;SDS011;13966;48.828;9.064;2022-11-12T13:32:54;4.63;;;3.47;;
26113;SDS011;13966;48.828;9.064;2022-11-12T13:35:24;5.47;;;3.28;;
26113;SDS011;13966;48.828;9.064;2022-11-12T13:40:44;4.88;;;3.53;;
26113;SDS011;13966;48.828;9.064;2022-11-12T13:45:41;5.88;;;3.67;;
26113;SDS011;13966;48.828;9.064;2022-11-12T13:48:18;5.10;;;3.10;;
26113;SDS011;13966;48.828;9.064;2022-11-12T13:50:48;4.70;;;3.10;;
26113;SDS011;13966;48.828;9.064;2022-11-12T13:53:17;6.38;;;3.58;;
26113;SDS011;13966;48.828;9.064;2022-11-12T13:55:47;3.88;;;3.20;;
26113;SDS011;13966;48.828;9.064;2022-11-12T13:58:17;11.40;;;4.00;;
26113;SDS011;13966;48.828;9.064;2022-11-12T14:00:51;7.90;;;4.03;;
26113;SDS011;13966;48.828;9.064;2022-11-12T14:03:17;4.20;;;3.53;;
26113;SDS011;13966;48.828;9.064;2022-11-12T14:05:45;5.13;;;4.15;;
26113;SDS011;13966;48.828;9.064;2022-11-12T14:08:15;6.50;;;4.40;;
26113;SDS011;13966;48.828;9.064;2022-11-12T14:13:41;5.88;;;4.38;;
26113;SDS011;13966;48.828;9.064;2022-11-12T14:18:41;6.57;;;4.70;;
26113;SDS011;13966;48.828;9.064;2022-11-12T14:21:10;5.72;;;4.15;;
26113;SDS011;13966;48.828;9.064;2022-11-12T14:23:40;6.63;;;4.10;;
26113;SDS011;13966;48.828;9.064;2022-11-12T14:26:09;5.88;;;4.32;;
26113;SDS011;13966;48.828;9.064;2022-11-12T14:28:36;5.85;;;4.55;;
26113;SDS011;13966;48.828;9.064;2022-11-12T14:31:09;9.80;;;5.85;;
26113;SDS011;13966;48.828;9.064;2022-11-12T14:33:36;17.13;;;8.07;;
26113;SDS011;13966;48.828;9.064;2022-11-12T14:36:03;17.83;;;9.00;;
26113;SDS011;13966;48.828;9.064;2022-11-12T14:38:36;10.43;;;6.82;;
26113;SDS011;13966;48.828;9.064;2022-11-12T14:41:06;8.70;;;6.22;;
26113;SDS011;13966;48.828;9.064;2022-11-12T14:46:02;8.65;;;6.45;;
26113;SDS011;13966;48.828;9.064;2022-11-12T14:48:30;7.95;;;5.68;;
26113;SDS011;13966;48.828;9.064;2022-11-12T14:51:01;7.00;;;5.40;;
26113;SDS011;13966;48.828;9.064;2022-11-12T14:53:30;10.02;;;5.93;;
26113;SDS011;13966;48.828;9.064;2022-11-12T14:55:57;8.35;;;5.97;;
26113;SDS011;13966;48.828;9.064;2022-11-12T14:58:23;8.02;;;6.03;;
26113;SDS011;13966;48.828;9.064;2022-11-12T15:00:52;7.03;;;5.45;;
26113;SDS011;13966;48.828;9.064;2022-11-12T15:03:23;10.30;;;6.47;;
26113;SDS011;13966;48.828;9.064;2022-11-12T15:08:32;9.80;;;5.90;;
26113;SDS011;13966;48.828;9.064;2022-11-12T15:13:44;11.80;;;8.18;;
26113;SDS011;13966;48.828;9.064;2022-11-12T15:16:14;13.07;;;9.43;;
26113;SDS011;13966;48.828;9.064;2022-11-12T15:18:41;12.95;;;9.65;;
26113;SDS011;13966;48.828;9.064;2022-11-12T15:23:45;14.32;;;10.32;;
26113;SDS011;13966;48.828;9.064;2022-11-12T15:26:13;15.50;;;9.68;;
26113;SDS011;13966;48.828;9.064;2022-11-12T15:28:40;15.65;;;9.63;;
26113;SDS011;13966;48.828;9.064;2022-11-12T15:31:07;12.93;;;9.43;;
26113;SDS011;13966;48.828;9.064;2022-11-12T15:33:40;12.75;;;8.93;;
26113;SDS011;13966;48.828;9.064;2022-11-12T15:36:14;13.52;;;9.95;;
26113;SDS011;13966;48.828;9.064;2022-11-12T15:38:45;19.50;;;11.70;;
26113;SDS011;13966;48.828;9.064;2022-11-12T15:41:19;14.18;;;10.27;;
26113;SDS011;13966;48.828;9.064;2022-11-12T15:43:46;13.90;;;8.55;;
26113;SDS011;13966;48.828;9.064;2022-11-12T15:46:13;13.57;;;9.25;;
26113;SDS011;13966;48.828;9.064;2022-11-12T15:48:42;12.05;;;9.02;;
26113;SDS011;13966;48.828;9.064;2022-11-12T15:51:11;17.65;;;10.90;;
26113;SDS011;13966;48.828;9.064;2022-11-12T15:53:37;19.40;;;12.80;;
26113;SDS011;13966;48.828;9.064;2022-11-12T15:56:03;15.43;;;9.68;;
26113;SDS011;13966;48.828;9.064;2022-11-12T15:58:34;14.20;;;8.93;;
26113;SDS011;13966;48.828;9.064;2022-11-12T16:01:00;11.00;;;8.25;;
26113;SDS011;13966;48.828;9.064;2022-11-12T16:03:27;12.98;;;8.75;;
26113;SDS011;13966;48.828;9.064;2022-11-12T16:05:54;13.35;;;9.85;;
26113;SDS011;13966;48.828;9.064;2022-11-12T16:08:20;13.43;;;10.13;;
26113;SDS011;13966;48.828;9.064;2022-11-12T16:10:46;13.38;;;9.95;;
26113;SDS011;13966;48.828;9.064;2022-11-12T16:13:15;13.88;;;10.45;;
26113;SDS011;13966;48.828;9.064;2022-11-12T16:15:42;13.82;;;10.20;;
26113;SDS011;13966;48.828;9.064;2022-11-12T16:18:09;14.45;;;10.95;;
26113;SDS011;13966;48.828;9.064;2022-11-12T16:20:36;14.82;;;11.30;;
26113;SDS011;13966;48.828;9.064;2022-11-12T16:23:02;21.10;;;11.57;;
26113;SDS011;13966;48.828;9.064;2022-11-12T16:25:30;15.50;;;10.50;;
26113;SDS011;13966;48.828;9.064;2022-11-12T16:27:57;18.17;;;11.25;;